sensor_id;sensor_type;location;lat;lon;timestamp;P1;durP1;ratioP1;P2;durP2;ratioP2
62709;SDS011;48770;51.624;5.886;2022-07-23T00:01:57;0.70;;;0.50;;
62709;SDS011;48770;51.624;5.886;2022-07-23T00:04:22;0.40;;;0.30;;
62709;SDS011;48770;51.624;5.886;2022-07-23T00:06:48;0.70;;;0.50;;
62709;SDS011;48770;51.624;5.886;2022-07-23T00:09:13;0.43;;;0.30;;
62709;SDS011;48770;51.624;5.886;2022-07-23T00:11:38;0.30;;;0.30;;
62709;SDS011;48770;51.624;5.886;2022-07-23T00:14:04;0.50;;;0.50;;
62709;SDS011;48770;51.624;5.886;2022-07-23T00:16:29;0.52;;;0.40;;
62709;SDS011;48770;51.624;5.886;2022-07-23T00:18:55;0.40;;;0.40;;
62709;SDS011;48770;51.624;5.886;2022-07-23T00:21:20;0.40;;;0.30;;
62709;SDS011;48770;51.624;5.886;2022-07-23T00:23:45;0.63;;;0.52;;
62709;SDS011;48770;51.624;5.886;2022-07-23T00:26:11;0.60;;;0.40;;
62709;SDS011;48770;51.624;5.886;2022-07-23T00:28:36;0.90;;;0.50;;
62709;SDS011;48770;51.624;5.886;2022-07-23T00:31:01;1.13;;;0.50;;
62709;SDS011;48770;51.624;5.886;2022-07-23T00:33:27;0.45;;;0.35;;
62709;SDS011;48770;51.624;5.886;2022-07-23T00:35:52;0.73;;;0.30;;
62709;SDS011;48770;51.624;5.886;2022-07-23T00:38:18;0.50;;;0.38;;
62709;SDS011;48770;51.624;5.886;2022-07-23T00:40:43;0.30;;;0.30;;
62709;SDS011;48770;51.624;5.886;2022-07-23T00:43:08;0.70;;;0.40;;
62709;SDS011;48770;51.624;5.886;2022-07-23T00:45:34;0.57;;;0.40;;
62709;SDS011;48770;51.624;5.886;2022-07-23T00:47:59;0.32;;;0.30;;
62709;SDS011;48770;51.624;5.886;2022-07-23T00:50:25;0.45;;;0.40;;
62709;SDS011;48770;51.624;5.886;2022-07-23T00:52:51;0.30;;;0.30;;
62709;SDS011;48770;51.624;5.886;2022-07-23T00:55:17;0.50;;;0.40;;
62709;SDS011;48770;51.624;5.886;2022-07-23T00:57:42;0.30;;;0.30;;
62709;SDS011;48770;51.624;5.886;2022-07-23T01:00:09;0.40;;;0.40;;
62709;SDS011;48770;51.624;5.886;2022-07-23T01:02:37;1.35;;;0.40;;
62709;SDS011;48770;51.624;5.886;2022-07-23T01:05:03;0.32;;;0.30;;
62709;SDS011;48770;51.624;5.886;2022-07-23T01:07:28;0.35;;;0.35;;
62709;SDS011;48770;51.624;5.886;2022-07-23T01:09:54;0.52;;;0.40;;
62709;SDS011;48770;51.624;5.886;2022-07-23T01:12:20;0.85;;;0.40;;
62709;SDS011;48770;51.624;5.886;2022-07-23T01:14:52;0.47;;;0.40;;
62709;SDS011;48770;51.624;5.886;2022-07-23T01:17:21;0.30;;;0.30;;
62709;SDS011;48770;51.624;5.886;2022-07-23T01:19:47;0.43;;;0.40;;
62709;SDS011;48770;51.624;5.886;2022-07-23T01:22:13;0.40;;;0.40;;
62709;SDS011;48770;51.624;5.886;2022-07-23T01:24:39;0.60;;;0.40;;
62709;SDS011;48770;51.624;5.886;2022-07-23T01:27:05;0.75;;;0.45;;
62709;SDS011;48770;51.624;5.886;2022-07-23T01:29:30;0.38;;;0.30;;
62709;SDS011;48770;51.624;5.886;2022-07-23T01:31:56;0.50;;;0.32;;
62709;SDS011;48770;51.624;5.886;2022-07-23T01:34:21;0.40;;;0.38;;
62709;SDS011;48770;51.624;5.886;2022-07-23T01:36:46;0.30;;;0.30;;
62709;SDS011;48770;51.624;5.886;2022-07-23T01:39:12;0.70;;;0.40;;
62709;SDS011;48770;51.624;5.886;2022-07-23T01:41:37;0.47;;;0.30;;
62709;SDS011;48770;51.624;5.886;2022-07-23T01:44:02;0.77;;;0.38;;
62709;SDS011;48770;51.624;5.886;2022-07-23T01:46:28;0.40;;;0.40;;
62709;SDS011;48770;51.624;5.886;2022-07-23T01:48:53;1.33;;;0.47;;
62709;SDS011;48770;51.624;5.886;2022-07-23T01:51:18;0.30;;;0.30;;
62709;SDS011;48770;51.624;5.886;2022-07-23T01:53:44;0.73;;;0.40;;
62709;SDS011;48770;51.624;5.886;2022-07-23T01:56:09;0.50;;;0.30;;
62709;SDS011;48770;51.624;5.886;2022-07-23T01:58:34;0.65;;;0.50;;
62709;SDS011;48770;51.624;5.886;2022-07-23T02:01:00;0.40;;;0.40;;
62709;SDS011;48770;51.624;5.886;2022-07-23T02:03:25;0.47;;;0.40;;
62709;SDS011;48770;51.624;5.886;2022-07-23T02:05:51;0.20;;;0.20;;
62709;SDS011;48770;51.624;5.886;2022-07-23T02:08:16;0.30;;;0.30;;
62709;SDS011;48770;51.624;5.886;2022-07-23T02:10:43;0.30;;;0.30;;
62709;SDS011;48770;51.624;5.886;2022-07-23T02:13:09;0.40;;;0.40;;
62709;SDS011;48770;51.624;5.886;2022-07-23T02:15:34;0.40;;;0.30;;
62709;SDS011;48770;51.624;5.886;2022-07-23T02:18:00;0.52;;;0.20;;
62709;SDS011;48770;51.624;5.886;2022-07-23T02:20:25;0.38;;;0.30;;
62709;SDS011;48770;51.624;5.886;2022-07-23T02:22:51;0.55;;;0.30;;
62709;SDS011;48770;51.624;5.886;2022-07-23T02:25:16;0.30;;;0.20;;
62709;SDS011;48770;51.624;5.886;2022-07-23T02:27:42;0.73;;;0.35;;
62709;SDS011;48770;51.624;5.886;2022-07-23T02:30:08;0.70;;;0.30;;
62709;SDS011;48770;51.624;5.886;2022-07-23T02:32:34;0.52;;;0.30;;
62709;SDS011;48770;51.624;5.886;2022-07-23T02:35:00;0.45;;;0.30;;
62709;SDS011;48770;51.624;5.886;2022-07-23T02:37:25;0.50;;;0.35;;
62709;SDS011;48770;51.624;5.886;2022-07-23T02:39:51;0.85;;;0.45;;
62709;SDS011;48770;51.624;5.886;2022-07-23T02:42:16;0.38;;;0.30;;
62709;SDS011;48770;51.624;5.886;2022-07-23T02:44:42;1.15;;;0.45;;
62709;SDS011;48770;51.624;5.886;2022-07-23T02:47:08;0.40;;;0.40;;
62709;SDS011;48770;51.624;5.886;2022-07-23T02:49:33;0.43;;;0.43;;
62709;SDS011;48770;51.624;5.886;2022-07-23T02:51:58;1.10;;;0.50;;
62709;SDS011;48770;51.624;5.886;2022-07-23T02:54:24;0.50;;;0.50;;
62709;SDS011;48770;51.624;5.886;2022-07-23T02:56:49;0.45;;;0.30;;
62709;SDS011;48770;51.624;5.886;2022-07-23T02:59:16;0.28;;;0.28;;
62709;SDS011;48770;51.624;5.886;2022-07-23T03:01:41;0.60;;;0.40;;
62709;SDS011;48770;51.624;5.886;2022-07-23T03:04:07;0.50;;;0.43;;
62709;SDS011;48770;51.624;5.886;2022-07-23T03:06:32;0.40;;;0.40;;
62709;SDS011;48770;51.624;5.886;2022-07-23T03:08:58;0.40;;;0.30;;
62709;SDS011;48770;51.624;5.886;2022-07-23T03:11:23;0.30;;;0.30;;
62709;SDS011;48770;51.624;5.886;2022-07-23T03:13:49;0.60;;;0.40;;
62709;SDS011;48770;51.624;5.886;2022-07-23T03:16:14;0.35;;;0.30;;
62709;SDS011;48770;51.624;5.886;2022-07-23T03:18:39;0.73;;;0.32;;
62709;SDS011;48770;51.624;5.886;2022-07-23T03:21:05;0.50;;;0.32;;
62709;SDS011;48770;51.624;5.886;2022-07-23T03:23:31;0.22;;;0.22;;
62709;SDS011;48770;51.624;5.886;2022-07-23T03:25:56;1.02;;;0.75;;
62709;SDS011;48770;51.624;5.886;2022-07-23T03:28:22;0.63;;;0.30;;
62709;SDS011;48770;51.624;5.886;2022-07-23T03:30:47;0.40;;;0.35;;
62709;SDS011;48770;51.624;5.886;2022-07-23T03:33:16;0.40;;;0.40;;
62709;SDS011;48770;51.624;5.886;2022-07-23T03:35:43;0.45;;;0.30;;
62709;SDS011;48770;51.624;5.886;2022-07-23T03:38:09;0.40;;;0.20;;
62709;SDS011;48770;51.624;5.886;2022-07-23T03:40:34;0.22;;;0.22;;
62709;SDS011;48770;51.624;5.886;2022-07-23T03:43:00;0.95;;;0.40;;
62709;SDS011;48770;51.624;5.886;2022-07-23T03:45:25;0.20;;;0.20;;
62709;SDS011;48770;51.624;5.886;2022-07-23T03:47:50;0.70;;;0.38;;
62709;SDS011;48770;51.624;5.886;2022-07-23T03:50:16;0.50;;;0.30;;
62709;SDS011;48770;51.624;5.886;2022-07-23T03:52:41;0.40;;;0.40;;
62709;SDS011;48770;51.624;5.886;2022-07-23T03:55:07;0.63;;;0.50;;
62709;SDS011;48770;51.624;5.886;2022-07-23T03:57:32;0.55;;;0.30;;
62709;SDS011;48770;51.624;5.886;2022-07-23T03:59:57;0.40;;;0.38;;
62709;SDS011;48770;51.624;5.886;2022-07-23T04:02:23;0.40;;;0.22;;
62709;SDS011;48770;51.624;5.886;2022-07-23T04:04:49;0.90;;;0.50;;
62709;SDS011;48770;51.624;5.886;2022-07-23T04:07:14;0.50;;;0.30;;
62709;SDS011;48770;51.624;5.886;2022-07-23T04:09:39;0.20;;;0.20;;
62709;SDS011;48770;51.624;5.886;2022-07-23T04:12:05;0.40;;;0.30;;
62709;SDS011;48770;51.624;5.886;2022-07-23T04:14:31;0.63;;;0.30;;
62709;SDS011;48770;51.624;5.886;2022-07-23T04:16:57;0.50;;;0.38;;
62709;SDS011;48770;51.624;5.886;2022-07-23T04:19:22;0.30;;;0.30;;
62709;SDS011;48770;51.624;5.886;2022-07-23T04:21:47;0.40;;;0.30;;
62709;SDS011;48770;51.624;5.886;2022-07-23T04:24:13;0.60;;;0.38;;
62709;SDS011;48770;51.624;5.886;2022-07-23T04:26:38;0.67;;;0.50;;
62709;SDS011;48770;51.624;5.886;2022-07-23T04:29:03;0.47;;;0.30;;
62709;SDS011;48770;51.624;5.886;2022-07-23T04:31:28;0.40;;;0.30;;
62709;SDS011;48770;51.624;5.886;2022-07-23T04:33:54;0.35;;;0.35;;
62709;SDS011;48770;51.624;5.886;2022-07-23T04:36:19;0.70;;;0.40;;
62709;SDS011;48770;51.624;5.886;2022-07-23T04:38:45;0.40;;;0.38;;
62709;SDS011;48770;51.624;5.886;2022-07-23T04:41:10;0.30;;;0.30;;
62709;SDS011;48770;51.624;5.886;2022-07-23T04:43:35;0.47;;;0.30;;
62709;SDS011;48770;51.624;5.886;2022-07-23T04:46:01;0.60;;;0.50;;
62709;SDS011;48770;51.624;5.886;2022-07-23T04:48:26;0.97;;;0.40;;
62709;SDS011;48770;51.624;5.886;2022-07-23T04:50:51;0.93;;;0.40;;
62709;SDS011;48770;51.624;5.886;2022-07-23T04:53:16;0.30;;;0.30;;
62709;SDS011;48770;51.624;5.886;2022-07-23T04:55:43;0.40;;;0.40;;
62709;SDS011;48770;51.624;5.886;2022-07-23T04:58:08;0.43;;;0.20;;
62709;SDS011;48770;51.624;5.886;2022-07-23T05:00:34;0.50;;;0.30;;
62709;SDS011;48770;51.624;5.886;2022-07-23T05:02:59;0.55;;;0.30;;
62709;SDS011;48770;51.624;5.886;2022-07-23T05:05:24;1.03;;;0.47;;
62709;SDS011;48770;51.624;5.886;2022-07-23T05:07:50;0.70;;;0.40;;
62709;SDS011;48770;51.624;5.886;2022-07-23T05:10:15;0.20;;;0.20;;
62709;SDS011;48770;51.624;5.886;2022-07-23T05:12:40;0.50;;;0.40;;
62709;SDS011;48770;51.624;5.886;2022-07-23T05:15:06;0.45;;;0.40;;
62709;SDS011;48770;51.624;5.886;2022-07-23T05:17:32;0.57;;;0.35;;
62709;SDS011;48770;51.624;5.886;2022-07-23T05:19:57;0.73;;;0.40;;
62709;SDS011;48770;51.624;5.886;2022-07-23T05:22:22;0.45;;;0.30;;
62709;SDS011;48770;51.624;5.886;2022-07-23T05:24:48;0.38;;;0.30;;
62709;SDS011;48770;51.624;5.886;2022-07-23T05:27:13;1.38;;;0.40;;
62709;SDS011;48770;51.624;5.886;2022-07-23T05:29:38;0.47;;;0.30;;
62709;SDS011;48770;51.624;5.886;2022-07-23T05:32:04;0.38;;;0.38;;
62709;SDS011;48770;51.624;5.886;2022-07-23T05:34:30;0.55;;;0.30;;
62709;SDS011;48770;51.624;5.886;2022-07-23T05:36:55;0.30;;;0.28;;
62709;SDS011;48770;51.624;5.886;2022-07-23T05:39:20;0.43;;;0.38;;
62709;SDS011;48770;51.624;5.886;2022-07-23T05:41:46;0.73;;;0.40;;
62709;SDS011;48770;51.624;5.886;2022-07-23T05:44:11;0.88;;;0.38;;
62709;SDS011;48770;51.624;5.886;2022-07-23T05:46:36;0.98;;;0.40;;
62709;SDS011;48770;51.624;5.886;2022-07-23T05:49:02;0.47;;;0.40;;
62709;SDS011;48770;51.624;5.886;2022-07-23T05:51:27;0.57;;;0.40;;
62709;SDS011;48770;51.624;5.886;2022-07-23T05:53:52;0.43;;;0.40;;
62709;SDS011;48770;51.624;5.886;2022-07-23T05:56:18;0.45;;;0.20;;
62709;SDS011;48770;51.624;5.886;2022-07-23T05:58:44;0.40;;;0.40;;
62709;SDS011;48770;51.624;5.886;2022-07-23T06:01:09;0.30;;;0.30;;
62709;SDS011;48770;51.624;5.886;2022-07-23T06:03:36;0.30;;;0.30;;
62709;SDS011;48770;51.624;5.886;2022-07-23T06:06:02;0.60;;;0.40;;
62709;SDS011;48770;51.624;5.886;2022-07-23T06:08:27;0.40;;;0.38;;
62709;SDS011;48770;51.624;5.886;2022-07-23T06:10:53;0.57;;;0.30;;
62709;SDS011;48770;51.624;5.886;2022-07-23T06:13:18;0.32;;;0.30;;
62709;SDS011;48770;51.624;5.886;2022-07-23T06:15:44;0.50;;;0.30;;
62709;SDS011;48770;51.624;5.886;2022-07-23T06:18:09;0.60;;;0.38;;
62709;SDS011;48770;51.624;5.886;2022-07-23T06:20:35;0.55;;;0.40;;
62709;SDS011;48770;51.624;5.886;2022-07-23T06:23:00;0.63;;;0.30;;
62709;SDS011;48770;51.624;5.886;2022-07-23T06:25:25;0.30;;;0.30;;
62709;SDS011;48770;51.624;5.886;2022-07-23T06:27:51;0.63;;;0.40;;
62709;SDS011;48770;51.624;5.886;2022-07-23T06:30:16;0.52;;;0.30;;
62709;SDS011;48770;51.624;5.886;2022-07-23T06:32:43;0.40;;;0.40;;
62709;SDS011;48770;51.624;5.886;2022-07-23T06:35:09;0.47;;;0.47;;
62709;SDS011;48770;51.624;5.886;2022-07-23T06:37:35;0.63;;;0.35;;
62709;SDS011;48770;51.624;5.886;2022-07-23T06:40:00;0.50;;;0.20;;
62709;SDS011;48770;51.624;5.886;2022-07-23T06:42:26;0.52;;;0.30;;
62709;SDS011;48770;51.624;5.886;2022-07-23T06:44:51;0.30;;;0.30;;
62709;SDS011;48770;51.624;5.886;2022-07-23T06:47:16;0.40;;;0.40;;
62709;SDS011;48770;51.624;5.886;2022-07-23T06:49:42;0.40;;;0.35;;
62709;SDS011;48770;51.624;5.886;2022-07-23T06:52:07;0.40;;;0.22;;
62709;SDS011;48770;51.624;5.886;2022-07-23T06:54:33;0.40;;;0.40;;
62709;SDS011;48770;51.624;5.886;2022-07-23T06:56:58;0.40;;;0.40;;
62709;SDS011;48770;51.624;5.886;2022-07-23T06:59:24;0.30;;;0.30;;
62709;SDS011;48770;51.624;5.886;2022-07-23T07:01:49;0.55;;;0.30;;
62709;SDS011;48770;51.624;5.886;2022-07-23T07:04:14;0.20;;;0.20;;
62709;SDS011;48770;51.624;5.886;2022-07-23T07:06:40;0.30;;;0.30;;
62709;SDS011;48770;51.624;5.886;2022-07-23T07:09:05;0.30;;;0.30;;
62709;SDS011;48770;51.624;5.886;2022-07-23T07:11:31;0.60;;;0.40;;
62709;SDS011;48770;51.624;5.886;2022-07-23T07:13:56;0.30;;;0.30;;
62709;SDS011;48770;51.624;5.886;2022-07-23T07:16:22;0.30;;;0.25;;
62709;SDS011;48770;51.624;5.886;2022-07-23T07:18:47;0.40;;;0.30;;
62709;SDS011;48770;51.624;5.886;2022-07-23T07:21:13;0.63;;;0.47;;
62709;SDS011;48770;51.624;5.886;2022-07-23T07:23:38;0.43;;;0.30;;
62709;SDS011;48770;51.624;5.886;2022-07-23T07:26:03;0.90;;;0.40;;
62709;SDS011;48770;51.624;5.886;2022-07-23T07:28:29;0.32;;;0.30;;
62709;SDS011;48770;51.624;5.886;2022-07-23T07:30:54;0.38;;;0.38;;
62709;SDS011;48770;51.624;5.886;2022-07-23T07:33:20;0.30;;;0.30;;
62709;SDS011;48770;51.624;5.886;2022-07-23T07:35:46;0.73;;;0.20;;
62709;SDS011;48770;51.624;5.886;2022-07-23T07:38:11;0.30;;;0.30;;
62709;SDS011;48770;51.624;5.886;2022-07-23T07:40:37;0.50;;;0.40;;
62709;SDS011;48770;51.624;5.886;2022-07-23T07:43:02;0.60;;;0.40;;
62709;SDS011;48770;51.624;5.886;2022-07-23T07:45:28;0.32;;;0.30;;
62709;SDS011;48770;51.624;5.886;2022-07-23T07:47:54;0.40;;;0.32;;
62709;SDS011;48770;51.624;5.886;2022-07-23T07:50:19;0.20;;;0.20;;
62709;SDS011;48770;51.624;5.886;2022-07-23T07:52:45;0.30;;;0.22;;
62709;SDS011;48770;51.624;5.886;2022-07-23T07:55:10;0.28;;;0.28;;
62709;SDS011;48770;51.624;5.886;2022-07-23T07:57:36;0.57;;;0.40;;
62709;SDS011;48770;51.624;5.886;2022-07-23T08:00:02;1.15;;;0.30;;
62709;SDS011;48770;51.624;5.886;2022-07-23T08:02:45;0.47;;;0.30;;
62709;SDS011;48770;51.624;5.886;2022-07-23T08:05:12;0.50;;;0.20;;
62709;SDS011;48770;51.624;5.886;2022-07-23T08:07:39;0.40;;;0.40;;
62709;SDS011;48770;51.624;5.886;2022-07-23T08:10:08;0.40;;;0.40;;
62709;SDS011;48770;51.624;5.886;2022-07-23T08:12:44;0.40;;;0.40;;
62709;SDS011;48770;51.624;5.886;2022-07-23T08:15:12;0.30;;;0.30;;
62709;SDS011;48770;51.624;5.886;2022-07-23T08:17:39;0.30;;;0.20;;
62709;SDS011;48770;51.624;5.886;2022-07-23T08:20:05;0.30;;;0.20;;
62709;SDS011;48770;51.624;5.886;2022-07-23T08:25:32;0.30;;;0.28;;
62709;SDS011;48770;51.624;5.886;2022-07-23T08:28:00;0.63;;;0.40;;
62709;SDS011;48770;51.624;5.886;2022-07-23T08:30:29;1.70;;;0.28;;
62709;SDS011;48770;51.624;5.886;2022-07-23T08:32:57;0.65;;;0.20;;
62709;SDS011;48770;51.624;5.886;2022-07-23T08:35:30;0.30;;;0.20;;
62709;SDS011;48770;51.624;5.886;2022-07-23T08:38:02;0.30;;;0.30;;
62709;SDS011;48770;51.624;5.886;2022-07-23T08:40:30;0.68;;;0.30;;
62709;SDS011;48770;51.624;5.886;2022-07-23T08:43:04;0.90;;;0.32;;
62709;SDS011;48770;51.624;5.886;2022-07-23T08:45:31;0.30;;;0.30;;
62709;SDS011;48770;51.624;5.886;2022-07-23T08:48:01;0.30;;;0.30;;
62709;SDS011;48770;51.624;5.886;2022-07-23T08:50:28;0.82;;;0.43;;
62709;SDS011;48770;51.624;5.886;2022-07-23T08:52:53;0.32;;;0.30;;
62709;SDS011;48770;51.624;5.886;2022-07-23T08:55:19;0.45;;;0.28;;
62709;SDS011;48770;51.624;5.886;2022-07-23T08:57:48;0.93;;;0.30;;
62709;SDS011;48770;51.624;5.886;2022-07-23T09:00:15;0.32;;;0.15;;
62709;SDS011;48770;51.624;5.886;2022-07-23T09:02:42;0.50;;;0.35;;
62709;SDS011;48770;51.624;5.886;2022-07-23T09:05:10;0.35;;;0.30;;
62709;SDS011;48770;51.624;5.886;2022-07-23T09:07:38;0.40;;;0.30;;
62709;SDS011;48770;51.624;5.886;2022-07-23T09:13:22;0.70;;;0.30;;
62709;SDS011;48770;51.624;5.886;2022-07-23T09:18:28;0.77;;;0.30;;
62709;SDS011;48770;51.624;5.886;2022-07-23T09:21:10;0.55;;;0.25;;
62709;SDS011;48770;51.624;5.886;2022-07-23T09:23:48;0.45;;;0.32;;
62709;SDS011;48770;51.624;5.886;2022-07-23T09:26:22;0.47;;;0.38;;
62709;SDS011;48770;51.624;5.886;2022-07-23T09:28:50;1.20;;;0.40;;
62709;SDS011;48770;51.624;5.886;2022-07-23T09:31:18;0.40;;;0.28;;
62709;SDS011;48770;51.624;5.886;2022-07-23T09:33:45;0.63;;;0.30;;
62709;SDS011;48770;51.624;5.886;2022-07-23T09:36:10;0.80;;;0.47;;
62709;SDS011;48770;51.624;5.886;2022-07-23T09:38:37;0.30;;;0.20;;
62709;SDS011;48770;51.624;5.886;2022-07-23T09:41:13;0.35;;;0.20;;
62709;SDS011;48770;51.624;5.886;2022-07-23T09:43:39;0.60;;;0.30;;
62709;SDS011;48770;51.624;5.886;2022-07-23T09:46:20;0.88;;;0.32;;
62709;SDS011;48770;51.624;5.886;2022-07-23T09:48:53;0.50;;;0.40;;
62709;SDS011;48770;51.624;5.886;2022-07-23T09:51:21;0.50;;;0.30;;
62709;SDS011;48770;51.624;5.886;2022-07-23T09:53:52;0.57;;;0.50;;
62709;SDS011;48770;51.624;5.886;2022-07-23T09:56:18;0.45;;;0.30;;
62709;SDS011;48770;51.624;5.886;2022-07-23T09:58:45;0.40;;;0.30;;
62709;SDS011;48770;51.624;5.886;2022-07-23T10:01:14;0.50;;;0.30;;
62709;SDS011;48770;51.624;5.886;2022-07-23T10:03:40;0.63;;;0.40;;
62709;SDS011;48770;51.624;5.886;2022-07-23T10:06:08;0.73;;;0.40;;
62709;SDS011;48770;51.624;5.886;2022-07-23T10:08:35;0.70;;;0.32;;
62709;SDS011;48770;51.624;5.886;2022-07-23T10:11:01;0.40;;;0.38;;
62709;SDS011;48770;51.624;5.886;2022-07-23T10:13:28;1.58;;;0.32;;
62709;SDS011;48770;51.624;5.886;2022-07-23T10:15:53;0.50;;;0.40;;
62709;SDS011;48770;51.624;5.886;2022-07-23T10:18:19;0.68;;;0.32;;
62709;SDS011;48770;51.624;5.886;2022-07-23T10:20:45;0.47;;;0.30;;
62709;SDS011;48770;51.624;5.886;2022-07-23T10:23:15;0.40;;;0.30;;
62709;SDS011;48770;51.624;5.886;2022-07-23T10:25:51;0.85;;;0.40;;
62709;SDS011;48770;51.624;5.886;2022-07-23T10:34:14;0.30;;;0.30;;
62709;SDS011;48770;51.624;5.886;2022-07-23T10:36:56;0.70;;;0.32;;
62709;SDS011;48770;51.624;5.886;2022-07-23T10:41:50;0.32;;;0.30;;
62709;SDS011;48770;51.624;5.886;2022-07-23T10:44:17;0.68;;;0.30;;
62709;SDS011;48770;51.624;5.886;2022-07-23T10:47:04;1.00;;;0.30;;
62709;SDS011;48770;51.624;5.886;2022-07-23T10:49:33;0.63;;;0.30;;
62709;SDS011;48770;51.624;5.886;2022-07-23T10:57:06;0.35;;;0.30;;
62709;SDS011;48770;51.624;5.886;2022-07-23T11:02:39;0.50;;;0.35;;
62709;SDS011;48770;51.624;5.886;2022-07-23T11:05:11;0.20;;;0.20;;
62709;SDS011;48770;51.624;5.886;2022-07-23T11:10:32;1.85;;;0.50;;
62709;SDS011;48770;51.624;5.886;2022-07-23T11:24:06;0.50;;;0.37;;
62709;SDS011;48770;51.624;5.886;2022-07-23T11:32:08;0.20;;;0.20;;
62709;SDS011;48770;51.624;5.886;2022-07-23T11:34:43;0.30;;;0.20;;
62709;SDS011;48770;51.624;5.886;2022-07-23T11:37:12;0.43;;;0.20;;
62709;SDS011;48770;51.624;5.886;2022-07-23T11:39:53;0.55;;;0.32;;
62709;SDS011;48770;51.624;5.886;2022-07-23T11:42:20;0.30;;;0.20;;
62709;SDS011;48770;51.624;5.886;2022-07-23T11:44:46;0.40;;;0.30;;
62709;SDS011;48770;51.624;5.886;2022-07-23T11:47:12;0.25;;;0.15;;
62709;SDS011;48770;51.624;5.886;2022-07-23T11:49:38;0.30;;;0.30;;
62709;SDS011;48770;51.624;5.886;2022-07-23T11:52:07;0.20;;;0.20;;
62709;SDS011;48770;51.624;5.886;2022-07-23T11:54:35;0.40;;;0.20;;
62709;SDS011;48770;51.624;5.886;2022-07-23T11:57:14;0.65;;;0.20;;
62709;SDS011;48770;51.624;5.886;2022-07-23T11:59:40;0.20;;;0.20;;
62709;SDS011;48770;51.624;5.886;2022-07-23T12:02:07;0.30;;;0.25;;
62709;SDS011;48770;51.624;5.886;2022-07-23T12:07:04;0.30;;;0.30;;
62709;SDS011;48770;51.624;5.886;2022-07-23T12:09:46;0.40;;;0.30;;
62709;SDS011;48770;51.624;5.886;2022-07-23T12:12:12;0.20;;;0.20;;
62709;SDS011;48770;51.624;5.886;2022-07-23T12:14:46;0.30;;;0.20;;
62709;SDS011;48770;51.624;5.886;2022-07-23T12:17:13;0.40;;;0.30;;
62709;SDS011;48770;51.624;5.886;2022-07-23T12:19:38;0.22;;;0.20;;
62709;SDS011;48770;51.624;5.886;2022-07-23T12:22:04;1.70;;;0.40;;
62709;SDS011;48770;51.624;5.886;2022-07-23T12:24:29;0.40;;;0.30;;
62709;SDS011;48770;51.624;5.886;2022-07-23T12:27:19;0.30;;;0.20;;
62709;SDS011;48770;51.624;5.886;2022-07-23T12:29:44;0.20;;;0.20;;
62709;SDS011;48770;51.624;5.886;2022-07-23T12:32:20;0.55;;;0.30;;
62709;SDS011;48770;51.624;5.886;2022-07-23T12:34:51;0.38;;;0.20;;
62709;SDS011;48770;51.624;5.886;2022-07-23T12:37:38;0.38;;;0.22;;
62709;SDS011;48770;51.624;5.886;2022-07-23T12:42:50;0.63;;;0.30;;
62709;SDS011;48770;51.624;5.886;2022-07-23T12:45:20;0.75;;;0.20;;
62709;SDS011;48770;51.624;5.886;2022-07-23T12:47:53;2.83;;;0.20;;
62709;SDS011;48770;51.624;5.886;2022-07-23T12:51:12;2.03;;;0.50;;
62709;SDS011;48770;51.624;5.886;2022-07-23T12:55:51;0.22;;;0.22;;
62709;SDS011;48770;51.624;5.886;2022-07-23T12:58:24;0.40;;;0.30;;
62709;SDS011;48770;51.624;5.886;2022-07-23T13:03:26;0.40;;;0.30;;
62709;SDS011;48770;51.624;5.886;2022-07-23T13:05:54;0.80;;;0.30;;
62709;SDS011;48770;51.624;5.886;2022-07-23T13:08:20;0.35;;;0.20;;
62709;SDS011;48770;51.624;5.886;2022-07-23T13:10:46;0.88;;;0.40;;
62709;SDS011;48770;51.624;5.886;2022-07-23T13:13:16;1.08;;;0.50;;
62709;SDS011;48770;51.624;5.886;2022-07-23T13:15:44;1.00;;;0.50;;
62709;SDS011;48770;51.624;5.886;2022-07-23T13:18:10;1.85;;;0.60;;
62709;SDS011;48770;51.624;5.886;2022-07-23T13:20:35;0.30;;;0.25;;
62709;SDS011;48770;51.624;5.886;2022-07-23T13:23:03;1.63;;;0.43;;
62709;SDS011;48770;51.624;5.886;2022-07-23T13:25:28;1.92;;;0.40;;
62709;SDS011;48770;51.624;5.886;2022-07-23T13:27:54;1.00;;;0.40;;
62709;SDS011;48770;51.624;5.886;2022-07-23T13:30:19;1.52;;;0.30;;
62709;SDS011;48770;51.624;5.886;2022-07-23T13:32:44;0.68;;;0.38;;
62709;SDS011;48770;51.624;5.886;2022-07-23T13:35:10;1.10;;;0.43;;
62709;SDS011;48770;51.624;5.886;2022-07-23T13:37:36;0.50;;;0.30;;
62709;SDS011;48770;51.624;5.886;2022-07-23T13:40:02;0.30;;;0.30;;
62709;SDS011;48770;51.624;5.886;2022-07-23T13:42:28;1.05;;;0.40;;
62709;SDS011;48770;51.624;5.886;2022-07-23T13:44:53;1.20;;;0.40;;
62709;SDS011;48770;51.624;5.886;2022-07-23T13:47:18;0.80;;;0.30;;
62709;SDS011;48770;51.624;5.886;2022-07-23T13:49:44;1.48;;;0.40;;
62709;SDS011;48770;51.624;5.886;2022-07-23T13:52:09;0.67;;;0.40;;
62709;SDS011;48770;51.624;5.886;2022-07-23T13:54:35;1.20;;;0.47;;
62709;SDS011;48770;51.624;5.886;2022-07-23T13:57:01;0.88;;;0.43;;
62709;SDS011;48770;51.624;5.886;2022-07-23T13:59:26;0.85;;;0.45;;
62709;SDS011;48770;51.624;5.886;2022-07-23T14:01:51;0.60;;;0.40;;
62709;SDS011;48770;51.624;5.886;2022-07-23T14:04:17;1.20;;;0.47;;
62709;SDS011;48770;51.624;5.886;2022-07-23T14:06:42;0.32;;;0.20;;
62709;SDS011;48770;51.624;5.886;2022-07-23T14:09:07;0.70;;;0.43;;
62709;SDS011;48770;51.624;5.886;2022-07-23T14:11:33;0.60;;;0.52;;
62709;SDS011;48770;51.624;5.886;2022-07-23T14:13:58;1.48;;;0.40;;
62709;SDS011;48770;51.624;5.886;2022-07-23T14:16:25;0.50;;;0.30;;
62709;SDS011;48770;51.624;5.886;2022-07-23T14:18:51;1.38;;;0.38;;
62709;SDS011;48770;51.624;5.886;2022-07-23T14:21:16;0.67;;;0.40;;
62709;SDS011;48770;51.624;5.886;2022-07-23T14:23:41;0.90;;;0.75;;
62709;SDS011;48770;51.624;5.886;2022-07-23T14:26:07;3.42;;;1.70;;
62709;SDS011;48770;51.624;5.886;2022-07-23T14:28:33;3.20;;;1.63;;
62709;SDS011;48770;51.624;5.886;2022-07-23T14:30:59;2.30;;;1.90;;
62709;SDS011;48770;51.624;5.886;2022-07-23T14:33:24;2.47;;;1.42;;
62709;SDS011;48770;51.624;5.886;2022-07-23T14:35:49;2.92;;;1.40;;
62709;SDS011;48770;51.624;5.886;2022-07-23T14:38:15;3.47;;;1.27;;
62709;SDS011;48770;51.624;5.886;2022-07-23T14:40:41;4.97;;;1.77;;
62709;SDS011;48770;51.624;5.886;2022-07-23T14:43:06;2.65;;;1.58;;
62709;SDS011;48770;51.624;5.886;2022-07-23T14:45:31;3.72;;;1.33;;
62709;SDS011;48770;51.624;5.886;2022-07-23T14:47:57;3.88;;;1.40;;
62709;SDS011;48770;51.624;5.886;2022-07-23T14:50:23;3.90;;;1.42;;
62709;SDS011;48770;51.624;5.886;2022-07-23T14:52:48;2.72;;;1.30;;
62709;SDS011;48770;51.624;5.886;2022-07-23T14:55:13;1.88;;;1.33;;
62709;SDS011;48770;51.624;5.886;2022-07-23T14:57:42;2.40;;;1.30;;
62709;SDS011;48770;51.624;5.886;2022-07-23T15:00:07;1.30;;;1.10;;
62709;SDS011;48770;51.624;5.886;2022-07-23T15:02:33;1.95;;;1.10;;
62709;SDS011;48770;51.624;5.886;2022-07-23T15:04:58;1.33;;;1.15;;
62709;SDS011;48770;51.624;5.886;2022-07-23T15:07:26;1.45;;;1.20;;
62709;SDS011;48770;51.624;5.886;2022-07-23T15:09:52;2.47;;;1.15;;
62709;SDS011;48770;51.624;5.886;2022-07-23T15:12:17;1.55;;;1.10;;
62709;SDS011;48770;51.624;5.886;2022-07-23T15:14:42;3.25;;;1.30;;
62709;SDS011;48770;51.624;5.886;2022-07-23T15:17:08;1.40;;;1.08;;
62709;SDS011;48770;51.624;5.886;2022-07-23T15:19:34;3.05;;;1.17;;
62709;SDS011;48770;51.624;5.886;2022-07-23T15:22:00;2.55;;;1.10;;
62709;SDS011;48770;51.624;5.886;2022-07-23T15:24:25;4.40;;;1.10;;
62709;SDS011;48770;51.624;5.886;2022-07-23T15:26:51;1.95;;;1.15;;
62709;SDS011;48770;51.624;5.886;2022-07-23T15:29:16;1.13;;;0.88;;
62709;SDS011;48770;51.624;5.886;2022-07-23T15:31:41;2.40;;;0.70;;
62709;SDS011;48770;51.624;5.886;2022-07-23T15:34:07;2.25;;;1.13;;
62709;SDS011;48770;51.624;5.886;2022-07-23T15:36:32;1.48;;;1.10;;
62709;SDS011;48770;51.624;5.886;2022-07-23T15:38:58;1.13;;;0.93;;
62709;SDS011;48770;51.624;5.886;2022-07-23T15:41:23;1.45;;;1.08;;